sensor_id;sensor_type;location;lat;lon;timestamp;P1;durP1;ratioP1;P2;durP2;ratioP2
6135;SDS011;24008;42.664;23.372;2022-11-20T00:01:04;12.97;;;9.17;;
6135;SDS011;24008;42.664;23.372;2022-11-20T00:03:31;14.60;;;10.10;;
6135;SDS011;24008;42.664;23.372;2022-11-20T00:05:59;14.10;;;9.50;;
6135;SDS011;24008;42.664;23.372;2022-11-20T00:08:26;12.80;;;9.50;;
6135;SDS011;24008;42.664;23.372;2022-11-20T00:10:53;14.53;;;9.63;;
6135;SDS011;24008;42.664;23.372;2022-11-20T00:13:20;12.90;;;9.83;;
6135;SDS011;24008;42.664;23.372;2022-11-20T00:15:48;13.77;;;9.80;;
6135;SDS011;24008;42.664;23.372;2022-11-20T00:18:15;14.23;;;9.40;;
6135;SDS011;24008;42.664;23.372;2022-11-20T00:20:41;13.20;;;9.40;;
6135;SDS011;24008;42.664;23.372;2022-11-20T00:23:08;13.13;;;9.80;;
6135;SDS011;24008;42.664;23.372;2022-11-20T00:25:35;11.37;;;8.00;;
6135;SDS011;24008;42.664;23.372;2022-11-20T00:28:01;10.70;;;6.37;;
6135;SDS011;24008;42.664;23.372;2022-11-20T00:30:28;14.47;;;8.37;;
6135;SDS011;24008;42.664;23.372;2022-11-20T00:32:57;12.83;;;8.80;;
6135;SDS011;24008;42.664;23.372;2022-11-20T00:35:24;10.43;;;6.70;;
6135;SDS011;24008;42.664;23.372;2022-11-20T00:37:50;14.90;;;6.80;;
6135;SDS011;24008;42.664;23.372;2022-11-20T00:40:17;10.43;;;7.83;;
6135;SDS011;24008;42.664;23.372;2022-11-20T00:42:44;10.60;;;6.00;;
6135;SDS011;24008;42.664;23.372;2022-11-20T00:45:13;7.17;;;4.50;;
6135;SDS011;24008;42.664;23.372;2022-11-20T00:47:39;6.87;;;4.90;;
6135;SDS011;24008;42.664;23.372;2022-11-20T00:50:08;10.57;;;6.60;;
6135;SDS011;24008;42.664;23.372;2022-11-20T00:52:35;5.13;;;2.80;;
6135;SDS011;24008;42.664;23.372;2022-11-20T00:55:02;8.87;;;4.23;;
6135;SDS011;24008;42.664;23.372;2022-11-20T00:57:28;5.10;;;3.70;;
6135;SDS011;24008;42.664;23.372;2022-11-20T00:59:55;5.63;;;4.20;;
6135;SDS011;24008;42.664;23.372;2022-11-20T01:02:22;6.93;;;4.37;;
6135;SDS011;24008;42.664;23.372;2022-11-20T01:04:49;5.67;;;3.60;;
6135;SDS011;24008;42.664;23.372;2022-11-20T01:07:17;3.63;;;1.27;;
6135;SDS011;24008;42.664;23.372;2022-11-20T01:09:44;4.17;;;2.77;;
6135;SDS011;24008;42.664;23.372;2022-11-20T01:12:10;4.97;;;2.07;;
6135;SDS011;24008;42.664;23.372;2022-11-20T01:14:40;6.80;;;3.20;;
6135;SDS011;24008;42.664;23.372;2022-11-20T01:17:07;8.23;;;2.70;;
6135;SDS011;24008;42.664;23.372;2022-11-20T01:19:33;4.17;;;2.70;;
6135;SDS011;24008;42.664;23.372;2022-11-20T01:22:00;4.80;;;3.43;;
6135;SDS011;24008;42.664;23.372;2022-11-20T01:24:28;5.30;;;3.70;;
6135;SDS011;24008;42.664;23.372;2022-11-20T01:26:55;5.00;;;3.30;;
6135;SDS011;24008;42.664;23.372;2022-11-20T01:29:23;5.97;;;3.60;;
6135;SDS011;24008;42.664;23.372;2022-11-20T01:31:51;4.53;;;3.60;;
6135;SDS011;24008;42.664;23.372;2022-11-20T01:34:19;5.67;;;4.23;;
6135;SDS011;24008;42.664;23.372;2022-11-20T01:36:47;7.73;;;3.97;;
6135;SDS011;24008;42.664;23.372;2022-11-20T01:39:15;4.13;;;2.80;;
6135;SDS011;24008;42.664;23.372;2022-11-20T01:41:45;5.33;;;3.40;;
6135;SDS011;24008;42.664;23.372;2022-11-20T01:44:51;7.97;;;4.50;;
6135;SDS011;24008;42.664;23.372;2022-11-20T01:47:21;6.10;;;4.00;;
6135;SDS011;24008;42.664;23.372;2022-11-20T01:49:52;8.73;;;4.63;;
6135;SDS011;24008;42.664;23.372;2022-11-20T01:52:24;7.50;;;4.10;;
6135;SDS011;24008;42.664;23.372;2022-11-20T01:54:56;7.37;;;4.50;;
6135;SDS011;24008;42.664;23.372;2022-11-20T01:57:28;9.23;;;4.57;;
6135;SDS011;24008;42.664;23.372;2022-11-20T01:59:59;9.47;;;5.00;;
6135;SDS011;24008;42.664;23.372;2022-11-20T02:02:30;6.40;;;4.60;;
6135;SDS011;24008;42.664;23.372;2022-11-20T02:04:58;6.07;;;4.27;;
6135;SDS011;24008;42.664;23.372;2022-11-20T02:07:30;7.50;;;3.77;;
6135;SDS011;24008;42.664;23.372;2022-11-20T02:09:57;5.07;;;3.37;;
6135;SDS011;24008;42.664;23.372;2022-11-20T02:12:24;5.10;;;2.97;;
6135;SDS011;24008;42.664;23.372;2022-11-20T02:15:10;5.57;;;3.10;;
6135;SDS011;24008;42.664;23.372;2022-11-20T02:17:37;3.77;;;2.20;;
6135;SDS011;24008;42.664;23.372;2022-11-20T02:20:04;5.47;;;3.80;;
6135;SDS011;24008;42.664;23.372;2022-11-20T02:22:34;3.00;;;1.70;;
6135;SDS011;24008;42.664;23.372;2022-11-20T02:25:06;3.20;;;1.63;;
6135;SDS011;24008;42.664;23.372;2022-11-20T02:27:35;3.50;;;1.80;;
6135;SDS011;24008;42.664;23.372;2022-11-20T02:30:04;4.80;;;3.67;;
6135;SDS011;24008;42.664;23.372;2022-11-20T02:32:34;3.53;;;3.03;;
6135;SDS011;24008;42.664;23.372;2022-11-20T02:35:06;3.47;;;2.10;;
6135;SDS011;24008;42.664;23.372;2022-11-20T02:37:34;3.13;;;2.20;;
6135;SDS011;24008;42.664;23.372;2022-11-20T02:40:04;3.00;;;1.67;;
6135;SDS011;24008;42.664;23.372;2022-11-20T02:42:33;5.17;;;1.83;;
6135;SDS011;24008;42.664;23.372;2022-11-20T02:44:59;4.53;;;1.90;;
6135;SDS011;24008;42.664;23.372;2022-11-20T02:47:26;2.07;;;1.10;;
6135;SDS011;24008;42.664;23.372;2022-11-20T02:49:53;2.60;;;1.00;;
6135;SDS011;24008;42.664;23.372;2022-11-20T02:52:20;2.27;;;1.00;;
6135;SDS011;24008;42.664;23.372;2022-11-20T02:54:46;4.10;;;0.80;;
6135;SDS011;24008;42.664;23.372;2022-11-20T02:57:13;2.87;;;1.10;;
6135;SDS011;24008;42.664;23.372;2022-11-20T02:59:41;1.53;;;0.90;;
6135;SDS011;24008;42.664;23.372;2022-11-20T03:02:08;1.60;;;0.70;;
6135;SDS011;24008;42.664;23.372;2022-11-20T03:04:35;6.27;;;1.53;;
6135;SDS011;24008;42.664;23.372;2022-11-20T03:07:01;2.23;;;0.90;;
6135;SDS011;24008;42.664;23.372;2022-11-20T03:09:28;3.30;;;1.10;;
6135;SDS011;24008;42.664;23.372;2022-11-20T03:11:55;2.20;;;0.80;;
6135;SDS011;24008;42.664;23.372;2022-11-20T03:14:22;1.57;;;0.90;;
6135;SDS011;24008;42.664;23.372;2022-11-20T03:16:50;2.73;;;1.10;;
6135;SDS011;24008;42.664;23.372;2022-11-20T03:19:17;1.83;;;1.00;;
6135;SDS011;24008;42.664;23.372;2022-11-20T03:21:44;1.87;;;0.97;;
6135;SDS011;24008;42.664;23.372;2022-11-20T03:24:10;2.80;;;0.90;;
6135;SDS011;24008;42.664;23.372;2022-11-20T03:26:38;3.60;;;0.90;;
6135;SDS011;24008;42.664;23.372;2022-11-20T03:29:05;1.73;;;1.20;;
6135;SDS011;24008;42.664;23.372;2022-11-20T03:31:32;2.07;;;1.13;;
6135;SDS011;24008;42.664;23.372;2022-11-20T03:34:02;1.80;;;0.80;;
6135;SDS011;24008;42.664;23.372;2022-11-20T03:36:30;3.03;;;1.13;;
6135;SDS011;24008;42.664;23.372;2022-11-20T03:38:57;2.80;;;1.30;;
6135;SDS011;24008;42.664;23.372;2022-11-20T03:41:24;1.90;;;0.97;;
6135;SDS011;24008;42.664;23.372;2022-11-20T03:43:53;2.73;;;1.10;;
6135;SDS011;24008;42.664;23.372;2022-11-20T03:46:21;2.50;;;1.23;;
6135;SDS011;24008;42.664;23.372;2022-11-20T03:48:48;2.00;;;1.00;;
6135;SDS011;24008;42.664;23.372;2022-11-20T03:51:17;1.73;;;0.80;;
6135;SDS011;24008;42.664;23.372;2022-11-20T03:53:44;1.70;;;0.90;;
6135;SDS011;24008;42.664;23.372;2022-11-20T03:56:13;2.17;;;1.10;;
6135;SDS011;24008;42.664;23.372;2022-11-20T03:58:42;2.63;;;0.80;;
6135;SDS011;24008;42.664;23.372;2022-11-20T04:01:09;5.67;;;0.97;;
6135;SDS011;24008;42.664;23.372;2022-11-20T04:03:38;1.77;;;0.80;;
6135;SDS011;24008;42.664;23.372;2022-11-20T04:06:07;3.27;;;0.90;;
6135;SDS011;24008;42.664;23.372;2022-11-20T04:08:36;3.93;;;1.10;;
6135;SDS011;24008;42.664;23.372;2022-11-20T04:11:10;3.40;;;0.83;;
6135;SDS011;24008;42.664;23.372;2022-11-20T04:13:38;8.60;;;1.67;;
6135;SDS011;24008;42.664;23.372;2022-11-20T04:16:06;1.87;;;0.87;;
6135;SDS011;24008;42.664;23.372;2022-11-20T04:18:34;1.87;;;0.70;;
6135;SDS011;24008;42.664;23.372;2022-11-20T04:21:01;1.23;;;0.80;;
6135;SDS011;24008;42.664;23.372;2022-11-20T04:23:29;6.47;;;1.20;;
6135;SDS011;24008;42.664;23.372;2022-11-20T04:26:01;3.37;;;0.90;;
6135;SDS011;24008;42.664;23.372;2022-11-20T04:28:29;2.80;;;0.80;;
6135;SDS011;24008;42.664;23.372;2022-11-20T04:31:01;2.63;;;1.20;;
6135;SDS011;24008;42.664;23.372;2022-11-20T04:33:29;2.90;;;1.10;;
6135;SDS011;24008;42.664;23.372;2022-11-20T04:35:59;1.20;;;0.70;;
6135;SDS011;24008;42.664;23.372;2022-11-20T04:38:27;2.40;;;0.90;;
6135;SDS011;24008;42.664;23.372;2022-11-20T04:40:58;1.97;;;0.80;;
6135;SDS011;24008;42.664;23.372;2022-11-20T04:43:26;1.73;;;0.90;;
6135;SDS011;24008;42.664;23.372;2022-11-20T04:45:54;4.80;;;0.90;;
6135;SDS011;24008;42.664;23.372;2022-11-20T04:48:22;1.73;;;0.70;;
6135;SDS011;24008;42.664;23.372;2022-11-20T04:50:49;3.53;;;0.90;;
6135;SDS011;24008;42.664;23.372;2022-11-20T04:53:16;3.03;;;0.70;;
6135;SDS011;24008;42.664;23.372;2022-11-20T04:55:44;3.43;;;0.93;;
6135;SDS011;24008;42.664;23.372;2022-11-20T04:58:11;4.87;;;1.17;;
6135;SDS011;24008;42.664;23.372;2022-11-20T05:00:39;2.10;;;0.80;;
6135;SDS011;24008;42.664;23.372;2022-11-20T05:03:06;2.83;;;0.73;;
6135;SDS011;24008;42.664;23.372;2022-11-20T05:05:33;4.83;;;1.10;;
6135;SDS011;24008;42.664;23.372;2022-11-20T05:08:00;2.80;;;1.00;;
6135;SDS011;24008;42.664;23.372;2022-11-20T05:10:27;3.23;;;0.77;;
6135;SDS011;24008;42.664;23.372;2022-11-20T05:12:54;3.00;;;0.97;;
6135;SDS011;24008;42.664;23.372;2022-11-20T05:15:20;2.10;;;0.80;;
6135;SDS011;24008;42.664;23.372;2022-11-20T05:17:49;5.67;;;1.30;;
6135;SDS011;24008;42.664;23.372;2022-11-20T05:20:17;5.27;;;1.10;;
6135;SDS011;24008;42.664;23.372;2022-11-20T05:22:44;2.60;;;1.30;;
6135;SDS011;24008;42.664;23.372;2022-11-20T05:25:11;2.87;;;0.93;;
6135;SDS011;24008;42.664;23.372;2022-11-20T05:27:38;1.83;;;0.90;;
6135;SDS011;24008;42.664;23.372;2022-11-20T05:30:05;4.17;;;1.30;;
6135;SDS011;24008;42.664;23.372;2022-11-20T05:32:33;2.50;;;1.10;;
6135;SDS011;24008;42.664;23.372;2022-11-20T05:35:02;1.97;;;1.03;;
6135;SDS011;24008;42.664;23.372;2022-11-20T05:37:29;3.57;;;1.37;;
6135;SDS011;24008;42.664;23.372;2022-11-20T05:39:55;2.90;;;1.37;;
6135;SDS011;24008;42.664;23.372;2022-11-20T05:42:22;3.17;;;1.40;;
6135;SDS011;24008;42.664;23.372;2022-11-20T05:44:58;4.67;;;1.30;;
6135;SDS011;24008;42.664;23.372;2022-11-20T05:47:26;4.60;;;1.60;;
6135;SDS011;24008;42.664;23.372;2022-11-20T05:49:53;4.93;;;1.50;;
6135;SDS011;24008;42.664;23.372;2022-11-20T05:52:21;2.40;;;1.30;;
6135;SDS011;24008;42.664;23.372;2022-11-20T05:54:48;4.30;;;1.93;;
6135;SDS011;24008;42.664;23.372;2022-11-20T05:57:15;3.37;;;1.60;;
6135;SDS011;24008;42.664;23.372;2022-11-20T05:59:42;3.40;;;1.80;;
6135;SDS011;24008;42.664;23.372;2022-11-20T06:02:09;4.10;;;1.60;;
6135;SDS011;24008;42.664;23.372;2022-11-20T06:04:35;4.13;;;1.50;;
6135;SDS011;24008;42.664;23.372;2022-11-20T06:07:04;4.67;;;1.60;;
6135;SDS011;24008;42.664;23.372;2022-11-20T06:09:32;3.53;;;1.50;;
6135;SDS011;24008;42.664;23.372;2022-11-20T06:11:59;3.73;;;2.03;;
6135;SDS011;24008;42.664;23.372;2022-11-20T06:14:25;3.17;;;1.80;;
6135;SDS011;24008;42.664;23.372;2022-11-20T06:16:52;6.03;;;3.87;;
6135;SDS011;24008;42.664;23.372;2022-11-20T06:19:19;3.53;;;1.70;;
6135;SDS011;24008;42.664;23.372;2022-11-20T06:21:47;12.60;;;8.40;;
6135;SDS011;24008;42.664;23.372;2022-11-20T06:24:14;4.13;;;2.43;;
6135;SDS011;24008;42.664;23.372;2022-11-20T06:26:43;4.57;;;1.63;;
6135;SDS011;24008;42.664;23.372;2022-11-20T06:29:10;9.60;;;2.70;;
6135;SDS011;24008;42.664;23.372;2022-11-20T06:31:36;4.60;;;1.87;;
6135;SDS011;24008;42.664;23.372;2022-11-20T06:34:03;5.10;;;1.60;;
6135;SDS011;24008;42.664;23.372;2022-11-20T06:36:31;6.17;;;2.17;;
6135;SDS011;24008;42.664;23.372;2022-11-20T06:38:58;5.20;;;2.30;;
6135;SDS011;24008;42.664;23.372;2022-11-20T06:41:25;4.20;;;2.03;;
6135;SDS011;24008;42.664;23.372;2022-11-20T06:43:54;3.57;;;2.30;;
6135;SDS011;24008;42.664;23.372;2022-11-20T06:46:21;4.90;;;1.93;;
6135;SDS011;24008;42.664;23.372;2022-11-20T06:48:48;3.13;;;1.87;;
6135;SDS011;24008;42.664;23.372;2022-11-20T06:51:15;6.20;;;1.73;;
6135;SDS011;24008;42.664;23.372;2022-11-20T06:53:43;8.23;;;2.40;;
6135;SDS011;24008;42.664;23.372;2022-11-20T06:56:09;6.10;;;1.90;;
6135;SDS011;24008;42.664;23.372;2022-11-20T06:58:36;3.83;;;2.30;;
6135;SDS011;24008;42.664;23.372;2022-11-20T07:01:05;3.30;;;1.37;;
6135;SDS011;24008;42.664;23.372;2022-11-20T07:03:33;6.20;;;1.80;;
6135;SDS011;24008;42.664;23.372;2022-11-20T07:06:01;5.67;;;1.50;;
6135;SDS011;24008;42.664;23.372;2022-11-20T07:08:28;4.57;;;1.63;;
6135;SDS011;24008;42.664;23.372;2022-11-20T07:10:56;3.20;;;1.57;;
6135;SDS011;24008;42.664;23.372;2022-11-20T07:13:24;2.77;;;1.30;;
6135;SDS011;24008;42.664;23.372;2022-11-20T07:15:51;2.37;;;1.30;;
6135;SDS011;24008;42.664;23.372;2022-11-20T07:18:20;2.47;;;1.30;;
6135;SDS011;24008;42.664;23.372;2022-11-20T07:20:47;3.20;;;1.50;;
6135;SDS011;24008;42.664;23.372;2022-11-20T07:23:13;2.53;;;1.20;;
6135;SDS011;24008;42.664;23.372;2022-11-20T07:25:40;4.67;;;1.90;;
6135;SDS011;24008;42.664;23.372;2022-11-20T07:28:07;4.03;;;1.97;;
6135;SDS011;24008;42.664;23.372;2022-11-20T07:30:35;4.60;;;2.43;;
6135;SDS011;24008;42.664;23.372;2022-11-20T07:33:02;4.80;;;1.80;;
6135;SDS011;24008;42.664;23.372;2022-11-20T07:35:31;3.47;;;1.47;;
6135;SDS011;24008;42.664;23.372;2022-11-20T07:37:57;4.27;;;2.10;;
6135;SDS011;24008;42.664;23.372;2022-11-20T07:40:24;6.27;;;2.20;;
6135;SDS011;24008;42.664;23.372;2022-11-20T07:42:51;5.40;;;1.47;;
6135;SDS011;24008;42.664;23.372;2022-11-20T07:45:20;4.17;;;1.90;;
6135;SDS011;24008;42.664;23.372;2022-11-20T07:47:47;5.50;;;2.47;;
6135;SDS011;24008;42.664;23.372;2022-11-20T07:50:15;7.47;;;2.73;;
6135;SDS011;24008;42.664;23.372;2022-11-20T07:52:43;6.43;;;4.10;;
6135;SDS011;24008;42.664;23.372;2022-11-20T07:55:10;3.30;;;1.93;;
6135;SDS011;24008;42.664;23.372;2022-11-20T07:57:37;3.67;;;2.13;;
6135;SDS011;24008;42.664;23.372;2022-11-20T08:00:05;3.40;;;1.30;;
6135;SDS011;24008;42.664;23.372;2022-11-20T08:02:36;3.30;;;1.60;;
6135;SDS011;24008;42.664;23.372;2022-11-20T08:05:04;4.47;;;1.53;;
6135;SDS011;24008;42.664;23.372;2022-11-20T08:07:34;8.27;;;2.23;;
6135;SDS011;24008;42.664;23.372;2022-11-20T08:10:03;6.63;;;1.70;;
6135;SDS011;24008;42.664;23.372;2022-11-20T08:12:30;5.87;;;1.30;;
6135;SDS011;24008;42.664;23.372;2022-11-20T08:15:15;7.60;;;1.40;;
6135;SDS011;24008;42.664;23.372;2022-11-20T08:17:42;4.60;;;1.27;;
6135;SDS011;24008;42.664;23.372;2022-11-20T08:20:09;9.00;;;2.37;;
6135;SDS011;24008;42.664;23.372;2022-11-20T08:22:36;3.40;;;1.90;;
6135;SDS011;24008;42.664;23.372;2022-11-20T08:25:04;4.80;;;1.87;;
6135;SDS011;24008;42.664;23.372;2022-11-20T08:27:31;4.93;;;1.50;;
6135;SDS011;24008;42.664;23.372;2022-11-20T08:29:59;7.23;;;1.73;;
6135;SDS011;24008;42.664;23.372;2022-11-20T08:32:25;11.37;;;3.23;;
6135;SDS011;24008;42.664;23.372;2022-11-20T08:34:52;7.63;;;2.40;;
6135;SDS011;24008;42.664;23.372;2022-11-20T08:37:19;7.60;;;1.60;;
6135;SDS011;24008;42.664;23.372;2022-11-20T08:39:46;6.47;;;1.87;;
6135;SDS011;24008;42.664;23.372;2022-11-20T08:42:14;7.07;;;1.90;;
6135;SDS011;24008;42.664;23.372;2022-11-20T08:44:41;8.03;;;1.73;;
6135;SDS011;24008;42.664;23.372;2022-11-20T08:47:08;7.00;;;1.80;;
6135;SDS011;24008;42.664;23.372;2022-11-20T08:49:35;5.40;;;1.63;;
6135;SDS011;24008;42.664;23.372;2022-11-20T08:52:03;6.07;;;2.00;;
6135;SDS011;24008;42.664;23.372;2022-11-20T08:54:30;9.43;;;2.67;;
6135;SDS011;24008;42.664;23.372;2022-11-20T08:56:57;5.70;;;2.50;;
6135;SDS011;24008;42.664;23.372;2022-11-20T08:59:25;6.20;;;2.23;;
6135;SDS011;24008;42.664;23.372;2022-11-20T09:01:52;4.00;;;1.57;;
6135;SDS011;24008;42.664;23.372;2022-11-20T09:04:19;5.10;;;2.20;;
6135;SDS011;24008;42.664;23.372;2022-11-20T09:06:46;7.13;;;1.63;;
6135;SDS011;24008;42.664;23.372;2022-11-20T09:09:15;4.60;;;1.90;;
6135;SDS011;24008;42.664;23.372;2022-11-20T09:11:42;5.43;;;1.67;;
6135;SDS011;24008;42.664;23.372;2022-11-20T09:14:09;9.33;;;2.10;;
6135;SDS011;24008;42.664;23.372;2022-11-20T09:16:37;6.57;;;2.27;;
6135;SDS011;24008;42.664;23.372;2022-11-20T09:19:04;5.37;;;2.83;;
6135;SDS011;24008;42.664;23.372;2022-11-20T09:21:31;2.77;;;2.50;;
6135;SDS011;24008;42.664;23.372;2022-11-20T09:23:58;5.80;;;2.70;;
6135;SDS011;24008;42.664;23.372;2022-11-20T09:26:25;7.20;;;3.40;;
6135;SDS011;24008;42.664;23.372;2022-11-20T09:28:51;6.33;;;2.80;;
6135;SDS011;24008;42.664;23.372;2022-11-20T09:31:19;5.03;;;2.40;;
6135;SDS011;24008;42.664;23.372;2022-11-20T09:33:50;3.30;;;1.93;;
6135;SDS011;24008;42.664;23.372;2022-11-20T09:36:17;2.17;;;1.60;;
6135;SDS011;24008;42.664;23.372;2022-11-20T09:38:44;2.47;;;1.53;;
6135;SDS011;24008;42.664;23.372;2022-11-20T09:41:17;3.20;;;1.63;;
6135;SDS011;24008;42.664;23.372;2022-11-20T09:44:02;4.73;;;1.83;;
6135;SDS011;24008;42.664;23.372;2022-11-20T09:46:40;4.00;;;2.33;;
6135;SDS011;24008;42.664;23.372;2022-11-20T09:49:19;3.07;;;1.57;;
6135;SDS011;24008;42.664;23.372;2022-11-20T09:51:56;4.10;;;1.50;;
6135;SDS011;24008;42.664;23.372;2022-11-20T09:54:26;10.57;;;3.40;;
6135;SDS011;24008;42.664;23.372;2022-11-20T09:56:58;2.60;;;1.60;;
6135;SDS011;24008;42.664;23.372;2022-11-20T09:59:32;4.27;;;1.70;;
6135;SDS011;24008;42.664;23.372;2022-11-20T10:02:03;5.37;;;2.03;;
6135;SDS011;24008;42.664;23.372;2022-11-20T10:04:44;2.10;;;1.37;;
6135;SDS011;24008;42.664;23.372;2022-11-20T10:07:16;1.83;;;1.13;;
6135;SDS011;24008;42.664;23.372;2022-11-20T10:09:50;4.57;;;1.80;;
6135;SDS011;24008;42.664;23.372;2022-11-20T10:12:21;6.20;;;2.17;;
6135;SDS011;24008;42.664;23.372;2022-11-20T10:15:01;3.00;;;1.93;;
6135;SDS011;24008;42.664;23.372;2022-11-20T10:17:44;5.67;;;2.40;;
6135;SDS011;24008;42.664;23.372;2022-11-20T10:20:23;4.80;;;3.30;;
6135;SDS011;24008;42.664;23.372;2022-11-20T10:23:01;8.83;;;3.60;;
6135;SDS011;24008;42.664;23.372;2022-11-20T10:25:44;8.57;;;5.00;;
6135;SDS011;24008;42.664;23.372;2022-11-20T10:28:21;9.87;;;5.00;;
6135;SDS011;24008;42.664;23.372;2022-11-20T10:30:57;8.37;;;4.23;;
6135;SDS011;24008;42.664;23.372;2022-11-20T10:33:27;7.57;;;4.40;;
6135;SDS011;24008;42.664;23.372;2022-11-20T10:36:01;7.93;;;4.80;;
6135;SDS011;24008;42.664;23.372;2022-11-20T10:38:35;8.30;;;4.93;;
6135;SDS011;24008;42.664;23.372;2022-11-20T10:41:06;11.13;;;6.17;;
6135;SDS011;24008;42.664;23.372;2022-11-20T10:43:52;10.30;;;5.80;;
6135;SDS011;24008;42.664;23.372;2022-11-20T10:46:29;11.20;;;4.57;;
6135;SDS011;24008;42.664;23.372;2022-11-20T10:49:04;13.30;;;4.70;;
6135;SDS011;24008;42.664;23.372;2022-11-20T10:51:40;10.40;;;5.27;;
6135;SDS011;24008;42.664;23.372;2022-11-20T10:54:19;9.53;;;5.47;;
6135;SDS011;24008;42.664;23.372;2022-11-20T10:56:56;9.70;;;5.60;;
6135;SDS011;24008;42.664;23.372;2022-11-20T10:59:37;9.33;;;5.40;;
6135;SDS011;24008;42.664;23.372;2022-11-20T11:02:16;6.47;;;4.80;;
6135;SDS011;24008;42.664;23.372;2022-11-20T11:04:45;11.53;;;5.60;;
6135;SDS011;24008;42.664;23.372;2022-11-20T11:07:19;9.33;;;4.97;;
6135;SDS011;24008;42.664;23.372;2022-11-20T11:09:49;10.33;;;4.83;;
6135;SDS011;24008;42.664;23.372;2022-11-20T11:12:18;11.57;;;5.07;;
6135;SDS011;24008;42.664;23.372;2022-11-20T11:14:47;12.13;;;5.47;;
6135;SDS011;24008;42.664;23.372;2022-11-20T11:17:26;10.63;;;5.40;;
6135;SDS011;24008;42.664;23.372;2022-11-20T11:20:01;18.33;;;8.13;;
6135;SDS011;24008;42.664;23.372;2022-11-20T11:22:34;11.97;;;4.03;;
6135;SDS011;24008;42.664;23.372;2022-11-20T11:25:18;8.13;;;2.90;;
6135;SDS011;24008;42.664;23.372;2022-11-20T11:27:47;4.07;;;2.03;;
6135;SDS011;24008;42.664;23.372;2022-11-20T11:30:16;2.60;;;1.37;;
6135;SDS011;24008;42.664;23.372;2022-11-20T11:32:45;2.27;;;0.90;;
6135;SDS011;24008;42.664;23.372;2022-11-20T11:35:20;3.50;;;1.10;;
6135;SDS011;24008;42.664;23.372;2022-11-20T11:37:50;2.67;;;1.10;;
6135;SDS011;24008;42.664;23.372;2022-11-20T11:40:20;1.53;;;1.20;;
6135;SDS011;24008;42.664;23.372;2022-11-20T11:42:56;0.90;;;0.80;;
6135;SDS011;24008;42.664;23.372;2022-11-20T11:45:25;2.13;;;0.87;;
6135;SDS011;24008;42.664;23.372;2022-11-20T11:47:52;1.73;;;0.90;;
6135;SDS011;24008;42.664;23.372;2022-11-20T11:50:22;2.57;;;0.80;;
6135;SDS011;24008;42.664;23.372;2022-11-20T11:52:54;1.97;;;0.87;;
6135;SDS011;24008;42.664;23.372;2022-11-20T11:55:30;3.67;;;1.00;;
6135;SDS011;24008;42.664;23.372;2022-11-20T11:58:10;3.80;;;0.90;;
6135;SDS011;24008;42.664;23.372;2022-11-20T12:00:45;5.50;;;3.13;;
6135;SDS011;24008;42.664;23.372;2022-11-20T12:03:18;3.60;;;1.00;;
6135;SDS011;24008;42.664;23.372;2022-11-20T12:05:53;6.23;;;1.40;;
6135;SDS011;24008;42.664;23.372;2022-11-20T12:08:26;5.57;;;1.23;;
6135;SDS011;24008;42.664;23.372;2022-11-20T12:10:59;6.40;;;1.50;;
6135;SDS011;24008;42.664;23.372;2022-11-20T12:13:34;4.80;;;1.17;;
6135;SDS011;24008;42.664;23.372;2022-11-20T12:16:10;2.37;;;0.93;;
6135;SDS011;24008;42.664;23.372;2022-11-20T12:18:39;5.37;;;0.80;;
6135;SDS011;24008;42.664;23.372;2022-11-20T12:21:11;1.87;;;0.77;;
6135;SDS011;24008;42.664;23.372;2022-11-20T12:23:49;1.20;;;0.60;;
6135;SDS011;24008;42.664;23.372;2022-11-20T12:26:32;2.63;;;0.83;;
6135;SDS011;24008;42.664;23.372;2022-11-20T12:29:13;1.97;;;0.80;;
6135;SDS011;24008;42.664;23.372;2022-11-20T12:31:54;2.30;;;0.83;;
6135;SDS011;24008;42.664;23.372;2022-11-20T12:37:30;3.07;;;0.83;;
6135;SDS011;24008;42.664;23.372;2022-11-20T12:40:09;2.97;;;0.77;;
6135;SDS011;24008;42.664;23.372;2022-11-20T12:42:49;1.90;;;0.60;;
6135;SDS011;24008;42.664;23.372;2022-11-20T12:51:34;3.50;;;1.10;;
6135;SDS011;24008;42.664;23.372;2022-11-20T12:54:27;5.07;;;1.83;;
6135;SDS011;24008;42.664;23.372;2022-11-20T12:57:16;3.20;;;1.20;;
6135;SDS011;24008;42.664;23.372;2022-11-20T12:59:52;2.87;;;1.10;;
6135;SDS011;24008;42.664;23.372;2022-11-20T13:02:35;5.40;;;1.20;;
6135;SDS011;24008;42.664;23.372;2022-11-20T13:05:27;5.13;;;1.70;;
6135;SDS011;24008;42.664;23.372;2022-11-20T13:08:03;3.70;;;1.33;;
6135;SDS011;24008;42.664;23.372;2022-11-20T13:10:35;5.33;;;2.77;;
6135;SDS011;24008;42.664;23.372;2022-11-20T13:13:12;10.50;;;6.07;;
6135;SDS011;24008;42.664;23.372;2022-11-20T13:15:47;14.33;;;6.60;;
6135;SDS011;24008;42.664;23.372;2022-11-20T13:18:20;11.63;;;6.00;;
6135;SDS011;24008;42.664;23.372;2022-11-20T13:20:47;11.53;;;5.60;;
6135;SDS011;24008;42.664;23.372;2022-11-20T13:23:22;6.03;;;3.37;;
6135;SDS011;24008;42.664;23.372;2022-11-20T13:25:51;8.77;;;4.53;;
6135;SDS011;24008;42.664;23.372;2022-11-20T13:28:30;12.60;;;6.27;;
6135;SDS011;24008;42.664;23.372;2022-11-20T13:30:57;5.80;;;3.20;;
6135;SDS011;24008;42.664;23.372;2022-11-20T13:33:26;6.83;;;3.23;;
6135;SDS011;24008;42.664;23.372;2022-11-20T13:35:56;5.90;;;2.50;;
6135;SDS011;24008;42.664;23.372;2022-11-20T13:38:25;6.10;;;2.27;;
6135;SDS011;24008;42.664;23.372;2022-11-20T13:40:52;4.83;;;1.73;;
6135;SDS011;24008;42.664;23.372;2022-11-20T13:43:27;6.00;;;2.60;;
6135;SDS011;24008;42.664;23.372;2022-11-20T13:46:02;4.70;;;1.87;;
6135;SDS011;24008;42.664;23.372;2022-11-20T13:48:32;4.93;;;2.40;;
6135;SDS011;24008;42.664;23.372;2022-11-20T13:51:03;5.90;;;2.90;;
6135;SDS011;24008;42.664;23.372;2022-11-20T13:53:44;7.30;;;2.87;;
6135;SDS011;24008;42.664;23.372;2022-11-20T13:56:23;5.47;;;2.70;;
6135;SDS011;24008;42.664;23.372;2022-11-20T13:59:02;4.90;;;3.00;;
6135;SDS011;24008;42.664;23.372;2022-11-20T14:01:36;4.60;;;3.10;;
6135;SDS011;24008;42.664;23.372;2022-11-20T14:04:06;6.80;;;3.70;;
6135;SDS011;24008;42.664;23.372;2022-11-20T14:06:38;7.50;;;3.20;;
6135;SDS011;24008;42.664;23.372;2022-11-20T14:09:10;6.13;;;3.50;;
6135;SDS011;24008;42.664;23.372;2022-11-20T14:11:45;7.33;;;4.03;;
6135;SDS011;24008;42.664;23.372;2022-11-20T14:14:15;5.97;;;4.07;;
6135;SDS011;24008;42.664;23.372;2022-11-20T14:16:43;5.73;;;3.90;;
6135;SDS011;24008;42.664;23.372;2022-11-20T14:19:26;9.23;;;4.03;;
6135;SDS011;24008;42.664;23.372;2022-11-20T14:22:07;7.40;;;4.13;;
6135;SDS011;24008;42.664;23.372;2022-11-20T14:24:36;10.23;;;4.33;;
6135;SDS011;24008;42.664;23.372;2022-11-20T14:27:03;9.33;;;4.33;;
6135;SDS011;24008;42.664;23.372;2022-11-20T14:29:33;9.03;;;5.30;;
6135;SDS011;24008;42.664;23.372;2022-11-20T14:32:01;8.13;;;4.33;;
6135;SDS011;24008;42.664;23.372;2022-11-20T14:34:30;7.67;;;4.40;;
6135;SDS011;24008;42.664;23.372;2022-11-20T14:37:03;8.93;;;4.47;;
6135;SDS011;24008;42.664;23.372;2022-11-20T14:39:34;8.80;;;4.97;;
6135;SDS011;24008;42.664;23.372;2022-11-20T14:42:10;9.83;;;5.10;;
6135;SDS011;24008;42.664;23.372;2022-11-20T14:44:43;6.30;;;4.50;;
6135;SDS011;24008;42.664;23.372;2022-11-20T14:47:11;7.93;;;4.33;;
6135;SDS011;24008;42.664;23.372;2022-11-20T14:49:39;7.97;;;5.07;;
6135;SDS011;24008;42.664;23.372;2022-11-20T14:52:11;10.13;;;5.73;;
6135;SDS011;24008;42.664;23.372;2022-11-20T14:54:48;11.03;;;5.40;;
6135;SDS011;24008;42.664;23.372;2022-11-20T14:57:23;10.17;;;6.60;;
6135;SDS011;24008;42.664;23.372;2022-11-20T15:00:04;10.33;;;5.60;;
6135;SDS011;24008;42.664;23.372;2022-11-20T15:02:33;11.80;;;6.87;;
6135;SDS011;24008;42.664;23.372;2022-11-20T15:05:00;14.07;;;6.50;;
6135;SDS011;24008;42.664;23.372;2022-11-20T15:07:30;13.90;;;7.40;;
6135;SDS011;24008;42.664;23.372;2022-11-20T15:09:59;10.17;;;7.17;;
6135;SDS011;24008;42.664;23.372;2022-11-20T15:12:31;14.70;;;7.43;;